createdAt,value
2022-08-26T00:02:52.268Z,19.83
2022-08-26T00:05:55.617Z,17.92
2022-08-26T00:09:00.423Z,24.05
2022-08-26T00:12:05.456Z,22.17
2022-08-26T00:15:14.447Z,18.85
2022-08-26T00:18:22.118Z,18.60
2022-08-26T00:21:28.206Z,22.67
2022-08-26T00:24:33.731Z,18.90
2022-08-26T00:27:37.627Z,26.58
2022-08-26T00:30:43.497Z,25.13
2022-08-26T00:33:49.105Z,22.23
2022-08-26T00:36:53.082Z,20.65
2022-08-26T00:39:57.803Z,22.55
2022-08-26T00:43:09.316Z,21.08
2022-08-26T00:46:17.718Z,22.88
2022-08-26T00:49:24.482Z,22.02
2022-08-26T00:52:27.993Z,22.63
2022-08-26T00:55:37.863Z,22.02
2022-08-26T00:58:43.113Z,19.95
2022-08-26T01:01:47.052Z,19.75
2022-08-26T01:04:55.734Z,23.10
2022-08-26T01:07:59.424Z,20.92
2022-08-26T01:11:04.998Z,23.33
2022-08-26T01:14:09.538Z,21.30
2022-08-26T01:17:13.530Z,18.33
2022-08-26T01:20:31.368Z,22.38
2022-08-26T01:23:39.313Z,23.02
2022-08-26T01:26:44.750Z,20.70
2022-08-26T01:29:50.355Z,19.48
2022-08-26T01:32:55.866Z,20.92
2022-08-26T01:36:00.015Z,23.10
2022-08-26T01:39:05.835Z,20.77
2022-08-26T01:42:14.115Z,23.17
2022-08-26T01:45:20.815Z,25.40
2022-08-26T01:48:29.346Z,21.58
2022-08-26T01:51:37.245Z,22.58
2022-08-26T01:54:41.968Z,20.08
2022-08-26T01:57:54.635Z,23.70
2022-08-26T02:01:00.292Z,23.05
2022-08-26T02:04:17.416Z,22.02
2022-08-26T02:07:24.289Z,22.70
2022-08-26T02:10:31.576Z,18.90
2022-08-26T02:13:38.677Z,23.13
2022-08-26T02:19:50.370Z,22.65
2022-08-26T02:22:53.639Z,21.60
2022-08-26T02:26:04.028Z,26.58
2022-08-26T02:29:10.841Z,24.60
2022-08-26T02:32:14.931Z,23.50
2022-08-26T02:35:24.516Z,25.77
2022-08-26T02:38:29.407Z,24.48
2022-08-26T02:41:34.593Z,21.80
2022-08-26T02:44:38.386Z,23.83
2022-08-26T02:47:41.575Z,22.15
2022-08-26T02:50:45.276Z,21.98
2022-08-26T02:53:48.535Z,23.70
2022-08-26T02:56:53.935Z,22.77
2022-08-26T02:59:58.068Z,20.58
2022-08-26T03:03:03.620Z,21.60
2022-08-26T03:06:07.187Z,24.55
2022-08-26T03:09:18.479Z,25.13
2022-08-26T03:12:23.348Z,24.58
2022-08-26T03:15:27.173Z,23.25
2022-08-26T03:18:32.694Z,24.48
2022-08-26T03:21:37.270Z,27.40
2022-08-26T03:24:41.109Z,22.05
2022-08-26T03:27:48.997Z,28.13
2022-08-26T03:34:27.763Z,25.48
2022-08-26T03:37:31.258Z,24.95
2022-08-26T03:40:34.803Z,29.98
2022-08-26T03:43:41.355Z,25.17
2022-08-26T03:46:44.667Z,25.77
2022-08-26T03:49:49.479Z,24.73
2022-08-26T03:52:56.544Z,31.48
2022-08-26T03:55:59.864Z,22.25
2022-08-26T03:59:03.372Z,23.92
2022-08-26T04:02:08.447Z,25.05
2022-08-26T04:05:18.465Z,23.98
2022-08-26T04:08:21.682Z,27.52
2022-08-26T04:11:30.603Z,27.75
2022-08-26T04:14:38.093Z,24.48
2022-08-26T04:17:42.882Z,25.65
2022-08-26T04:20:47.743Z,26.00
2022-08-26T04:23:51.312Z,25.15
2022-08-26T04:26:56.347Z,25.98
2022-08-26T04:29:59.701Z,23.75
2022-08-26T04:33:04.484Z,28.77
2022-08-26T04:36:20.109Z,26.13
2022-08-26T04:39:23.615Z,31.83
2022-08-26T04:42:29.294Z,31.58
2022-08-26T04:45:34.145Z,28.05
2022-08-26T04:48:37.395Z,27.08
2022-08-26T04:51:42.183Z,27.25
2022-08-26T04:54:47.812Z,28.90
2022-08-26T04:57:51.566Z,30.13
2022-08-26T05:00:57.404Z,29.58
2022-08-26T05:04:01.898Z,31.10
2022-08-26T05:07:12.893Z,28.67
2022-08-26T05:10:16.353Z,28.40
2022-08-26T05:13:22.156Z,31.80
2022-08-26T05:16:26.427Z,24.63
2022-08-26T05:19:32.680Z,21.80
2022-08-26T05:22:40.426Z,25.00
2022-08-26T05:25:46.983Z,22.48
2022-08-26T05:28:50.267Z,29.08
2022-08-26T05:31:53.873Z,31.73
2022-08-26T05:34:59.521Z,27.52
2022-08-26T05:38:12.254Z,20.25
2022-08-26T05:41:18.175Z,32.42
2022-08-26T05:44:22.405Z,27.08
2022-08-26T05:47:26.448Z,32.65
2022-08-26T05:50:30.267Z,25.95
2022-08-26T05:53:34.880Z,26.42
2022-08-26T05:56:39.706Z,27.38
2022-08-26T05:59:43.102Z,32.67
2022-08-26T06:02:48.633Z,29.63
2022-08-26T06:05:51.928Z,31.58
2022-08-26T06:08:59.079Z,32.10
2022-08-26T06:12:02.518Z,27.30
2022-08-26T06:15:06.389Z,32.38
2022-08-26T06:18:10.534Z,29.30
2022-08-26T06:21:17.865Z,27.00
2022-08-26T06:24:40.383Z,34.38
2022-08-26T06:27:43.585Z,24.25
2022-08-26T06:30:47.398Z,33.30
2022-08-26T06:33:50.835Z,23.50
2022-08-26T06:36:54.155Z,29.05
2022-08-26T06:39:59.015Z,25.95
2022-08-26T06:43:02.369Z,27.60
2022-08-26T06:46:08.843Z,30.98
2022-08-26T06:49:13.261Z,25.00
2022-08-26T06:52:21.200Z,24.10
2022-08-26T06:55:29.604Z,23.88
2022-08-26T06:58:32.952Z,27.58
2022-08-26T07:01:43.098Z,28.85
2022-08-26T07:04:47.768Z,25.20
2022-08-26T07:07:55.748Z,32.05
2022-08-26T07:11:05.687Z,25.98
2022-08-26T07:14:09.770Z,29.25
2022-08-26T07:17:14.325Z,24.58
2022-08-26T07:20:18.287Z,27.58
2022-08-26T07:23:22.957Z,25.25
2022-08-26T07:26:30.347Z,32.10
2022-08-26T07:29:33.841Z,27.50
2022-08-26T07:32:37.788Z,27.90
2022-08-26T07:35:41.065Z,24.33
2022-08-26T07:38:45.212Z,21.63
2022-08-26T07:41:50.315Z,27.50
2022-08-26T07:44:55.446Z,23.42
2022-08-26T07:47:58.866Z,22.73
2022-08-26T07:51:02.781Z,24.73
2022-08-26T07:54:07.073Z,29.90
2022-08-26T07:57:11.910Z,26.35
2022-08-26T08:00:17.545Z,20.58
2022-08-26T08:03:21.621Z,22.80
2022-08-26T08:06:28.174Z,24.70
2022-08-26T08:09:31.669Z,22.33
2022-08-26T08:12:36.760Z,23.55
2022-08-26T08:15:40.732Z,19.65
2022-08-26T08:18:45.783Z,27.52
2022-08-26T08:21:49.509Z,24.27
2022-08-26T08:24:53.282Z,21.92
2022-08-26T08:27:57.979Z,31.40
2022-08-26T08:31:02.128Z,29.15
2022-08-26T08:34:06.687Z,20.02
2022-08-26T08:37:10.864Z,19.80
2022-08-26T08:40:18.373Z,24.67
2022-08-26T08:43:32.434Z,16.38
2022-08-26T08:46:42.634Z,20.98
2022-08-26T08:49:46.897Z,23.58
2022-08-26T08:52:57.318Z,18.63
2022-08-26T08:56:11.357Z,16.15
2022-08-26T08:59:20.246Z,19.15
2022-08-26T09:02:36.866Z,14.50
2022-08-26T09:05:48.737Z,19.90
2022-08-26T09:08:53.091Z,19.50
2022-08-26T09:11:58.757Z,17.77
2022-08-26T09:15:07.518Z,15.10
2022-08-26T09:18:24.243Z,19.00
2022-08-26T09:21:29.807Z,18.67
2022-08-26T09:24:53.036Z,24.27
2022-08-26T09:28:18.772Z,17.08
2022-08-26T09:34:28.836Z,20.35
2022-08-26T09:37:41.964Z,21.50
2022-08-26T09:40:59.181Z,22.73
2022-08-26T09:44:15.759Z,17.33
2022-08-26T09:47:24.372Z,23.45
2022-08-26T09:50:31.874Z,17.98
2022-08-26T09:53:37.775Z,25.02
2022-08-26T09:56:41.127Z,17.10
2022-08-26T09:59:45.183Z,18.90
2022-08-26T10:02:51.114Z,18.75
2022-08-26T10:06:00.424Z,17.38
2022-08-26T10:09:08.333Z,22.15
2022-08-26T10:12:17.630Z,16.42
2022-08-26T10:15:24.173Z,18.60
2022-08-26T10:18:34.087Z,17.55
2022-08-26T10:21:46.354Z,16.75
2022-08-26T10:24:58.515Z,20.90
2022-08-26T10:28:08.152Z,20.40
2022-08-26T10:31:27.810Z,16.83
2022-08-26T10:34:32.670Z,24.23
2022-08-26T10:37:39.565Z,16.98
2022-08-26T10:40:50.937Z,19.80
2022-08-26T10:43:59.972Z,16.52
2022-08-26T10:47:10.845Z,15.80
2022-08-26T10:50:18.052Z,19.30
2022-08-26T10:53:32.930Z,20.95
2022-08-26T10:56:49.418Z,19.55
2022-08-26T11:00:00.953Z,15.20
2022-08-26T11:03:25.670Z,16.85
2022-08-26T11:06:31.370Z,19.88
2022-08-26T11:09:47.466Z,21.13
2022-08-26T11:16:01.108Z,17.83
2022-08-26T11:19:05.474Z,23.38
2022-08-26T11:22:11.048Z,14.85
2022-08-26T11:25:18.286Z,13.80
2022-08-26T11:28:34.695Z,26.48
2022-08-26T11:31:55.639Z,17.50
2022-08-26T11:35:00.616Z,16.98
2022-08-26T11:38:13.372Z,23.80
2022-08-26T11:41:29.091Z,14.52
2022-08-26T11:44:41.029Z,23.10
2022-08-26T11:47:52.908Z,11.63
2022-08-26T11:50:58.139Z,20.60
2022-08-26T11:54:11.678Z,21.35
2022-08-26T11:57:17.892Z,18.70
2022-08-26T12:00:23.645Z,17.48
2022-08-26T12:03:36.250Z,20.33
2022-08-26T12:06:46.483Z,12.30
2022-08-26T12:09:56.700Z,19.05
2022-08-26T12:13:03.723Z,14.45
2022-08-26T12:16:08.049Z,16.88
2022-08-26T12:19:26.377Z,17.40
2022-08-26T12:22:36.001Z,14.68
2022-08-26T12:25:40.538Z,14.65
2022-08-26T12:28:47.482Z,14.88
2022-08-26T12:31:50.918Z,20.73
2022-08-26T12:34:55.092Z,11.25
2022-08-26T12:38:00.742Z,11.02
2022-08-26T12:41:04.443Z,14.55
2022-08-26T12:44:09.238Z,15.85
2022-08-26T12:47:39.019Z,13.70
2022-08-26T12:50:49.160Z,17.30
2022-08-26T12:53:53.484Z,14.07
2022-08-26T12:56:56.776Z,18.92
2022-08-26T13:00:43.089Z,16.65
2022-08-26T13:03:48.460Z,13.23
2022-08-26T13:07:15.833Z,17.90
2022-08-26T13:10:36.069Z,12.18
2022-08-26T13:13:40.197Z,15.88
2022-08-26T13:16:43.882Z,14.25
2022-08-26T13:19:48.711Z,15.27
2022-08-26T13:22:58.750Z,12.68
2022-08-26T13:26:02.785Z,9.18
2022-08-26T13:29:10.153Z,15.30
2022-08-26T13:32:14.139Z,13.60
2022-08-26T13:35:18.826Z,19.30
2022-08-26T13:38:32.923Z,17.20
2022-08-26T13:41:37.145Z,16.95
2022-08-26T13:44:40.620Z,19.92
2022-08-26T13:47:44.584Z,13.50
2022-08-26T13:50:49.712Z,15.85
2022-08-26T13:54:01.248Z,22.15
2022-08-26T14:00:14.617Z,11.63
2022-08-26T14:03:18.118Z,10.50
2022-08-26T14:06:25.621Z,11.23
2022-08-26T14:09:28.880Z,14.20
2022-08-26T14:12:32.126Z,39.17
2022-08-26T14:15:38.705Z,0.30
2022-08-26T14:18:47.339Z,0.10
2022-08-26T14:21:54.824Z,0.20
2022-08-26T14:25:12.630Z,0.20
2022-08-26T14:28:31.707Z,41.90
2022-08-26T14:31:36.360Z,25.70
2022-08-26T14:34:42.270Z,12.77
2022-08-26T14:37:45.919Z,32.50
2022-08-26T14:40:52.319Z,65.65
2022-08-26T14:44:00.729Z,40.28
2022-08-26T14:47:07.139Z,27.92
2022-08-26T14:50:10.975Z,20.90
2022-08-26T14:53:33.861Z,16.80
2022-08-26T14:56:38.859Z,19.10
2022-08-26T14:59:49.951Z,20.08
2022-08-26T15:02:53.730Z,17.30
2022-08-26T15:05:57.703Z,17.58
2022-08-26T15:09:01.028Z,16.02
2022-08-26T15:12:05.155Z,12.63
2022-08-26T15:15:12.926Z,11.80
2022-08-26T15:18:34.631Z,15.02
2022-08-26T15:21:38.273Z,18.17
2022-08-26T15:24:41.767Z,11.63
2022-08-26T15:27:45.289Z,16.90
2022-08-26T15:34:27.550Z,13.75
2022-08-26T15:40:36.861Z,18.05
2022-08-26T15:43:40.124Z,11.70
2022-08-26T15:46:43.921Z,12.07
2022-08-26T15:49:48.831Z,14.48
2022-08-26T15:52:52.412Z,15.38
2022-08-26T15:55:56.647Z,17.95
2022-08-26T15:59:01.656Z,19.58
2022-08-26T16:02:05.194Z,15.65
2022-08-26T16:05:10.778Z,17.33
2022-08-26T16:08:15.465Z,13.50
2022-08-26T16:11:19.879Z,18.17
2022-08-26T16:14:24.006Z,15.45
2022-08-26T16:17:27.569Z,17.58
2022-08-26T16:20:37.511Z,17.80
2022-08-26T16:23:43.258Z,16.73
2022-08-26T16:26:49.635Z,16.63
2022-08-26T16:29:53.087Z,16.13
2022-08-26T16:32:58.117Z,18.45
2022-08-26T16:36:03.063Z,16.00
2022-08-26T16:39:07.718Z,23.25
2022-08-26T16:42:10.980Z,15.05
2022-08-26T16:45:14.404Z,15.55
2022-08-26T16:48:18.089Z,18.77
2022-08-26T16:51:26.883Z,20.10
2022-08-26T16:54:30.099Z,18.60
2022-08-26T16:57:34.419Z,21.08
2022-08-26T17:00:37.672Z,23.13
2022-08-26T17:03:41.065Z,18.13
2022-08-26T17:06:45.726Z,21.30
2022-08-26T17:09:48.922Z,19.02
2022-08-26T17:12:52.648Z,25.45
2022-08-26T17:15:58.480Z,18.27
2022-08-26T17:19:04.516Z,17.75
2022-08-26T17:22:09.595Z,21.00
2022-08-26T17:25:14.975Z,24.50
2022-08-26T17:28:18.450Z,25.60
2022-08-26T17:31:23.354Z,19.63
2022-08-26T17:34:26.913Z,21.48
2022-08-26T17:37:31.503Z,31.75
2022-08-26T17:40:35.054Z,22.65
2022-08-26T17:43:38.487Z,23.00
2022-08-26T17:46:41.713Z,24.67
2022-08-26T17:49:45.165Z,22.85
2022-08-26T17:52:50.662Z,20.40
2022-08-26T17:55:54.190Z,22.48
2022-08-26T17:59:03.948Z,28.13
2022-08-26T18:02:07.373Z,22.05
2022-08-26T18:05:12.039Z,29.60
2022-08-26T18:08:16.742Z,30.45
2022-08-26T18:11:22.960Z,24.15
2022-08-26T18:14:26.206Z,22.23
2022-08-26T18:17:29.319Z,22.67
2022-08-26T18:20:32.618Z,19.73
2022-08-26T18:23:37.600Z,23.15
2022-08-26T18:26:47.927Z,19.42
2022-08-26T18:29:51.626Z,21.48
2022-08-26T18:32:54.837Z,24.13
2022-08-26T18:35:58.215Z,25.05
2022-08-26T18:39:04.158Z,28.02
2022-08-26T18:42:08.036Z,30.48
2022-08-26T18:45:16.201Z,31.92
2022-08-26T18:48:19.842Z,31.67
2022-08-26T18:51:25.301Z,32.08
2022-08-26T18:54:30.371Z,27.00
2022-08-26T18:57:33.716Z,24.00
2022-08-26T19:00:37.194Z,25.48
2022-08-26T19:03:40.586Z,41.38
2022-08-26T19:06:44.834Z,38.13
2022-08-26T19:09:53.819Z,34.13
2022-08-26T19:13:00.583Z,33.58
2022-08-26T19:16:05.937Z,30.20
2022-08-26T19:19:09.219Z,33.70
2022-08-26T19:22:12.690Z,38.28
2022-08-26T19:25:18.402Z,38.60
2022-08-26T19:28:23.048Z,31.17
2022-08-26T19:31:26.963Z,41.35
2022-08-26T19:34:30.557Z,41.08
2022-08-26T19:37:33.927Z,35.95
2022-08-26T19:40:39.600Z,37.28
2022-08-26T19:43:43.655Z,38.15
2022-08-26T19:46:49.539Z,44.25
2022-08-26T19:49:54.858Z,47.13
2022-08-26T19:52:58.418Z,42.55
2022-08-26T19:56:02.971Z,32.58
2022-08-26T19:59:06.626Z,38.20
2022-08-26T20:02:11.243Z,43.05
2022-08-26T20:05:16.342Z,50.78
2022-08-26T20:08:22.086Z,32.58
2022-08-26T20:11:27.383Z,45.17
2022-08-26T20:14:30.992Z,38.03
2022-08-26T20:17:34.342Z,44.97
2022-08-26T20:20:54.976Z,41.13
2022-08-26T20:24:02.005Z,44.83
2022-08-26T20:27:08.240Z,47.38
2022-08-26T20:30:12.666Z,52.85
2022-08-26T20:33:16.159Z,46.40
2022-08-26T20:36:21.423Z,50.17
2022-08-26T20:39:28.796Z,49.42
2022-08-26T20:42:34.533Z,43.22
2022-08-26T20:45:37.864Z,29.25
2022-08-26T20:48:43.585Z,27.50
2022-08-26T20:51:51.422Z,24.10
2022-08-26T20:54:55.336Z,23.20
2022-08-26T20:58:01.783Z,20.67
2022-08-26T21:01:08.040Z,27.35
2022-08-26T21:04:13.946Z,28.45
2022-08-26T21:07:17.116Z,28.67
2022-08-26T21:10:21.392Z,32.90
2022-08-26T21:13:35.758Z,20.33
2022-08-26T21:16:47.763Z,22.90
2022-08-26T21:19:51.095Z,21.27
2022-08-26T21:22:54.296Z,25.15
2022-08-26T21:25:57.705Z,32.47
2022-08-26T21:29:03.438Z,35.40
2022-08-26T21:34:42.939Z,26.50
2022-08-26T21:37:46.377Z,22.73
2022-08-26T21:40:58.569Z,24.20
2022-08-26T21:44:01.899Z,23.90
2022-08-26T21:47:05.574Z,20.17
2022-08-26T21:50:10.983Z,18.70
2022-08-26T21:53:15.478Z,17.70
2022-08-26T21:56:20.302Z,25.98
2022-08-26T21:59:23.681Z,22.92
2022-08-26T22:02:26.975Z,24.02
2022-08-26T22:05:32.117Z,17.58
2022-08-26T22:08:35.575Z,19.95
2022-08-26T22:11:38.877Z,16.75
2022-08-26T22:14:42.248Z,17.40
2022-08-26T22:17:45.499Z,21.67
2022-08-26T22:20:51.923Z,23.30
2022-08-26T22:23:58.087Z,19.30
2022-08-26T22:27:01.742Z,18.10
2022-08-26T22:30:05.816Z,17.52
2022-08-26T22:33:12.332Z,11.77
2022-08-26T22:36:23.753Z,20.25
2022-08-26T22:39:27.680Z,18.15
2022-08-26T22:42:30.964Z,17.80
2022-08-26T22:45:34.492Z,17.02
2022-08-26T22:48:39.408Z,19.60
2022-08-26T22:51:44.118Z,19.38
2022-08-26T22:54:49.085Z,20.77
2022-08-26T22:57:53.338Z,20.65
2022-08-26T23:00:57.840Z,13.32
2022-08-26T23:04:02.792Z,13.50
2022-08-26T23:07:08.002Z,16.85
2022-08-26T23:10:11.705Z,16.42
2022-08-26T23:13:16.284Z,14.70
2022-08-26T23:16:19.629Z,17.45
2022-08-26T23:19:24.341Z,16.80
2022-08-26T23:22:29.688Z,16.17
2022-08-26T23:25:33.533Z,24.05
2022-08-26T23:28:38.166Z,23.10
2022-08-26T23:31:43.278Z,19.13
2022-08-26T23:35:01.910Z,21.08
2022-08-26T23:38:05.740Z,23.45
2022-08-26T23:41:09.619Z,18.38
2022-08-26T23:44:13.407Z,20.85
2022-08-26T23:47:16.987Z,20.27
2022-08-26T23:50:45.944Z,26.40
2022-08-26T23:53:48.257Z,22.92
2022-08-26T23:56:51.730Z,26.00
2022-08-26T23:59:55.031Z,25.20
